createdAt,value
2018-08-04T00:00:23.734Z,17.70
2018-08-04T00:02:52.884Z,14.13
2018-08-04T00:05:22.085Z,17.93
2018-08-04T00:07:51.302Z,15.23
2018-08-04T00:10:21.607Z,15.13
2018-08-04T00:12:51.907Z,14.43
2018-08-04T00:15:21.333Z,15.03
2018-08-04T00:17:50.683Z,15.70
2018-08-04T00:20:19.842Z,14.20
2018-08-04T00:22:49.022Z,14.87
2018-08-04T00:25:18.363Z,16.90
2018-08-04T00:27:47.626Z,13.60
2018-08-04T00:30:16.838Z,13.73
2018-08-04T00:32:46.028Z,14.13
2018-08-04T00:35:15.237Z,14.43
2018-08-04T00:37:44.431Z,13.73
2018-08-04T00:40:14.055Z,14.77
2018-08-04T00:42:43.300Z,16.33
2018-08-04T00:45:12.420Z,15.40
2018-08-04T00:47:41.518Z,16.73
2018-08-04T00:50:11.089Z,14.40
2018-08-04T00:52:40.226Z,14.00
2018-08-04T00:55:09.539Z,15.13
2018-08-04T00:57:38.616Z,15.00
2018-08-04T01:00:07.873Z,14.37
2018-08-04T01:02:37.018Z,13.10
2018-08-04T01:05:06.077Z,13.70
2018-08-04T01:07:35.105Z,13.23
2018-08-04T01:10:05.559Z,14.80
2018-08-04T01:12:34.952Z,15.97
2018-08-04T01:15:04.121Z,13.83
2018-08-04T01:17:33.459Z,14.83
2018-08-04T01:20:04.497Z,15.70
2018-08-04T01:22:34.538Z,14.20
2018-08-04T01:25:03.725Z,15.77
2018-08-04T01:27:32.989Z,14.87
2018-08-04T01:30:02.281Z,13.77
2018-08-04T01:32:31.385Z,14.10
2018-08-04T01:35:00.621Z,13.80
2018-08-04T01:37:29.925Z,14.37
2018-08-04T01:39:58.989Z,13.70
2018-08-04T01:42:28.463Z,13.57
2018-08-04T01:44:57.481Z,15.07
2018-08-04T01:47:26.721Z,13.33
2018-08-04T01:49:55.994Z,12.97
2018-08-04T01:52:25.190Z,12.70
2018-08-04T01:54:54.565Z,13.53
2018-08-04T01:57:23.783Z,15.00
2018-08-04T01:59:52.990Z,14.83
2018-08-04T02:02:22.054Z,14.40
2018-08-04T02:04:51.185Z,14.40
2018-08-04T02:07:20.808Z,12.80
2018-08-04T02:09:50.149Z,14.10
2018-08-04T02:12:19.409Z,13.53
2018-08-04T02:14:48.498Z,14.10
2018-08-04T02:17:17.683Z,12.27
2018-08-04T02:19:46.874Z,13.70
2018-08-04T02:22:16.069Z,13.13
2018-08-04T02:24:45.301Z,13.50
2018-08-04T02:27:14.470Z,14.17
2018-08-04T02:29:43.664Z,14.80
2018-08-04T02:32:12.881Z,15.33
2018-08-04T02:34:42.078Z,14.40
2018-08-04T02:37:11.591Z,14.37
2018-08-04T02:39:40.738Z,13.00
2018-08-04T02:42:09.482Z,15.23
2018-08-04T02:44:38.260Z,13.70
2018-08-04T02:47:07.057Z,15.40
2018-08-04T02:49:35.885Z,16.10
2018-08-04T02:52:04.712Z,15.07
2018-08-04T02:54:33.665Z,15.40
2018-08-04T02:57:02.439Z,15.60
2018-08-04T02:59:31.165Z,13.13
2018-08-04T03:01:59.948Z,15.17
2018-08-04T03:04:28.708Z,16.70
2018-08-04T03:06:57.434Z,18.70
2018-08-04T03:09:26.166Z,14.63
2018-08-04T03:11:54.904Z,17.77
2018-08-04T03:14:23.721Z,16.27
2018-08-04T03:16:52.475Z,17.37
2018-08-04T03:19:21.327Z,15.00
2018-08-04T03:21:50.082Z,14.50
2018-08-04T03:24:18.953Z,16.27
2018-08-04T03:26:47.774Z,15.20
2018-08-04T03:29:16.631Z,14.20
2018-08-04T03:31:45.407Z,14.40
2018-08-04T03:34:14.301Z,14.30
2018-08-04T03:36:43.099Z,14.70
2018-08-04T03:39:12.564Z,13.70
2018-08-04T03:41:42.228Z,14.10
2018-08-04T03:44:10.963Z,14.13
2018-08-04T03:46:39.704Z,13.30
2018-08-04T03:49:08.454Z,12.57
2018-08-04T03:51:37.255Z,12.33
2018-08-04T03:54:05.973Z,11.40
2018-08-04T03:56:34.684Z,11.93
2018-08-04T03:59:03.401Z,10.43
2018-08-04T04:01:35.062Z,9.80
2018-08-04T04:04:05.497Z,7.90
2018-08-04T04:06:34.259Z,7.60
2018-08-04T04:09:03.104Z,7.57
2018-08-04T04:11:31.828Z,7.97
2018-08-04T04:14:00.567Z,8.13
2018-08-04T04:16:29.352Z,7.10
2018-08-04T04:18:58.116Z,6.50
2018-08-04T04:21:26.901Z,6.10
2018-08-04T04:23:55.678Z,5.80
2018-08-04T04:26:24.427Z,5.80
2018-08-04T04:28:53.186Z,5.80
2018-08-04T04:31:21.930Z,5.70
2018-08-04T04:33:50.668Z,5.67
2018-08-04T04:36:19.418Z,5.13
2018-08-04T04:38:48.154Z,6.00
2018-08-04T04:41:16.974Z,6.33
2018-08-04T04:43:45.759Z,6.67
2018-08-04T04:46:14.518Z,5.03
2018-08-04T04:48:43.578Z,5.27
2018-08-04T04:51:12.345Z,4.47
2018-08-04T04:53:41.054Z,5.23
2018-08-04T04:56:09.774Z,5.40
2018-08-04T04:58:38.479Z,5.30
2018-08-04T05:01:07.266Z,4.50
2018-08-04T05:03:35.993Z,6.20
2018-08-04T05:06:04.767Z,4.07
2018-08-04T05:08:33.527Z,4.50
2018-08-04T05:11:02.246Z,6.13
2018-08-04T05:13:31.022Z,4.13
2018-08-04T05:15:59.771Z,5.10
2018-08-04T05:18:28.505Z,4.93
2018-08-04T05:20:57.235Z,5.70
2018-08-04T05:23:25.963Z,4.53
2018-08-04T05:25:54.728Z,5.20
2018-08-04T05:28:23.467Z,5.20
2018-08-04T05:30:52.239Z,4.80
2018-08-04T05:33:21.159Z,5.73
2018-08-04T05:35:50.013Z,5.50
2018-08-04T05:38:18.835Z,5.70
2018-08-04T05:40:47.563Z,5.03
2018-08-04T05:43:16.340Z,5.30
2018-08-04T05:45:45.073Z,4.90
2018-08-04T05:48:13.798Z,4.30
2018-08-04T05:50:42.611Z,6.30
2018-08-04T05:53:11.335Z,5.67
2018-08-04T05:55:40.170Z,5.83
2018-08-04T05:58:09.018Z,5.10
2018-08-04T06:00:37.807Z,5.63
2018-08-04T06:03:07.467Z,5.30
2018-08-04T06:05:36.278Z,4.03
2018-08-04T06:08:05.361Z,4.17
2018-08-04T06:10:34.147Z,3.37
2018-08-04T06:13:02.938Z,7.67
2018-08-04T06:15:31.838Z,3.55
2018-08-04T06:18:00.605Z,4.17
2018-08-04T06:20:29.359Z,4.28
2018-08-04T06:22:58.112Z,4.22
2018-08-04T06:25:26.879Z,4.65
2018-08-04T06:27:55.784Z,3.77
2018-08-04T06:30:24.563Z,3.92
2018-08-04T06:32:53.447Z,3.90
2018-08-04T06:35:22.142Z,4.55
2018-08-04T06:37:51.070Z,5.08
2018-08-04T06:40:19.849Z,5.50
2018-08-04T06:42:48.538Z,4.63
2018-08-04T06:45:17.289Z,4.43
2018-08-04T06:47:46.058Z,4.33
2018-08-04T06:50:14.856Z,4.07
2018-08-04T06:52:43.629Z,3.97
2018-08-04T06:55:12.337Z,3.67
2018-08-04T06:57:41.105Z,4.12
2018-08-04T07:00:09.910Z,4.83
2018-08-04T07:02:38.642Z,7.50
2018-08-04T07:05:07.399Z,4.58
2018-08-04T07:07:36.134Z,4.97
2018-08-04T07:10:05.244Z,4.20
2018-08-04T07:12:34.067Z,6.67
2018-08-04T07:15:02.860Z,4.12
2018-08-04T07:17:31.585Z,5.22
2018-08-04T07:20:00.317Z,4.72
2018-08-04T07:22:29.033Z,4.55
2018-08-04T07:24:57.822Z,4.62
2018-08-04T07:27:31.937Z,3.98
2018-08-04T07:30:00.911Z,3.90
2018-08-04T07:32:29.626Z,5.13
2018-08-04T07:34:58.366Z,3.75
2018-08-04T07:37:27.064Z,4.37
2018-08-04T07:39:55.757Z,3.40
2018-08-04T07:42:24.482Z,3.58
2018-08-04T07:44:53.198Z,3.30
2018-08-04T07:47:21.961Z,4.25
2018-08-04T07:49:50.690Z,3.52
2018-08-04T07:52:19.435Z,3.22
2018-08-04T07:54:48.243Z,3.47
2018-08-04T07:57:16.953Z,3.10
2018-08-04T07:59:45.680Z,3.95
2018-08-04T08:02:14.393Z,3.40
2018-08-04T08:04:43.106Z,3.27
2018-08-04T08:07:11.837Z,3.50
2018-08-04T08:09:40.525Z,4.25
2018-08-04T08:12:09.200Z,2.80
2018-08-04T08:14:38.821Z,3.50
2018-08-04T08:17:07.578Z,3.90
2018-08-04T08:19:36.277Z,3.80
2018-08-04T08:22:04.993Z,3.62
2018-08-04T08:24:33.689Z,4.47
2018-08-04T08:27:02.407Z,2.85
2018-08-04T08:29:31.112Z,3.27
2018-08-04T08:31:59.820Z,3.45
2018-08-04T08:34:28.509Z,3.33
2018-08-04T08:36:57.212Z,3.65
2018-08-04T08:39:25.945Z,3.60
2018-08-04T08:41:54.802Z,3.30
2018-08-04T08:44:23.497Z,4.00
2018-08-04T08:46:52.226Z,3.85
2018-08-04T08:49:20.929Z,3.95
2018-08-04T08:51:49.625Z,3.62
2018-08-04T08:54:18.376Z,3.05
2018-08-04T08:56:47.086Z,3.35
2018-08-04T08:59:15.834Z,3.25
2018-08-04T09:01:44.573Z,2.85
2018-08-04T09:04:13.262Z,3.62
2018-08-04T09:06:41.949Z,4.65
2018-08-04T09:09:11.329Z,3.67
2018-08-04T09:11:40.057Z,2.92
2018-08-04T09:14:09.999Z,3.65
2018-08-04T09:16:38.965Z,4.10
2018-08-04T09:19:07.695Z,3.20
2018-08-04T09:21:36.396Z,3.30
2018-08-04T09:24:05.200Z,2.90
2018-08-04T09:26:33.894Z,3.77
2018-08-04T09:29:02.730Z,4.12
2018-08-04T09:31:31.424Z,3.87
2018-08-04T09:34:00.133Z,3.35
2018-08-04T09:36:29.030Z,3.47
2018-08-04T09:38:57.782Z,2.98
2018-08-04T09:41:26.530Z,3.15
2018-08-04T09:43:55.245Z,2.83
2018-08-04T09:46:24.138Z,3.77
2018-08-04T09:48:52.990Z,3.52
2018-08-04T09:51:21.694Z,3.10
2018-08-04T09:53:50.410Z,3.55
2018-08-04T09:56:19.190Z,3.50
2018-08-04T09:58:47.905Z,3.70
2018-08-04T10:01:21.816Z,3.10
2018-08-04T10:03:50.523Z,3.25
2018-08-04T10:06:19.285Z,4.12
2018-08-04T10:08:47.996Z,3.52
2018-08-04T10:11:16.816Z,2.92
2018-08-04T10:13:45.532Z,3.35
2018-08-04T10:16:14.217Z,3.10
2018-08-04T10:18:42.957Z,2.90
2018-08-04T10:21:11.794Z,2.80
2018-08-04T10:23:40.822Z,2.95
2018-08-04T10:26:09.589Z,2.30
2018-08-04T10:28:38.314Z,3.05
2018-08-04T10:31:07.170Z,3.70
2018-08-04T10:33:36.230Z,3.17
2018-08-04T10:36:04.914Z,3.47
2018-08-04T10:38:33.679Z,3.20
2018-08-04T10:41:02.389Z,2.50
2018-08-04T10:43:31.135Z,2.70
2018-08-04T10:45:59.853Z,2.92
2018-08-04T10:48:28.601Z,3.35
2018-08-04T10:50:57.377Z,3.00
2018-08-04T10:53:26.091Z,3.40
2018-08-04T10:55:54.818Z,4.05
2018-08-04T10:58:23.580Z,3.22
2018-08-04T11:00:52.307Z,3.10
2018-08-04T11:03:21.005Z,3.50
2018-08-04T11:05:49.777Z,2.85
2018-08-04T11:08:23.943Z,2.87
2018-08-04T11:10:52.687Z,3.92
2018-08-04T11:13:21.375Z,2.70
2018-08-04T11:15:50.089Z,3.27
2018-08-04T11:18:18.815Z,3.65
2018-08-04T11:20:47.527Z,3.33
2018-08-04T11:23:16.270Z,3.15
2018-08-04T11:25:44.997Z,3.52
2018-08-04T11:28:13.828Z,3.58
2018-08-04T11:30:42.533Z,5.03
2018-08-04T11:33:11.221Z,4.00
2018-08-04T11:35:39.925Z,3.35
2018-08-04T11:38:08.871Z,2.85
2018-08-04T11:40:37.599Z,3.77
2018-08-04T11:43:06.369Z,3.15
2018-08-04T11:45:35.068Z,2.27
2018-08-04T11:48:03.785Z,3.47
2018-08-04T11:50:32.476Z,4.03
2018-08-04T11:53:01.211Z,3.60
2018-08-04T11:55:29.959Z,2.55
2018-08-04T11:57:58.758Z,3.65
2018-08-04T12:00:27.468Z,2.70
2018-08-04T12:02:56.177Z,3.40
2018-08-04T12:05:24.923Z,2.58
2018-08-04T12:07:53.637Z,2.10
2018-08-04T12:10:22.383Z,3.35
2018-08-04T12:12:51.109Z,4.22
2018-08-04T12:15:19.847Z,3.15
2018-08-04T12:17:48.544Z,3.35
2018-08-04T12:20:17.346Z,2.87
2018-08-04T12:22:46.071Z,3.10
2018-08-04T12:25:16.158Z,3.22
2018-08-04T12:27:47.465Z,2.45
2018-08-04T12:30:18.238Z,3.75
2018-08-04T12:32:50.000Z,2.90
2018-08-04T12:35:18.917Z,2.87
2018-08-04T12:37:47.897Z,3.10
2018-08-04T12:40:16.866Z,2.87
2018-08-04T12:42:45.590Z,4.10
2018-08-04T12:45:14.352Z,2.65
2018-08-04T12:47:43.091Z,3.20
2018-08-04T12:50:11.856Z,2.65
2018-08-04T12:52:40.602Z,3.37
2018-08-04T12:55:09.322Z,2.95
2018-08-04T12:57:38.072Z,2.35
2018-08-04T13:00:07.525Z,4.45
2018-08-04T13:02:36.311Z,3.40
2018-08-04T13:05:05.898Z,3.37
2018-08-04T13:07:34.634Z,3.13
2018-08-04T13:10:03.454Z,2.80
2018-08-04T13:12:32.189Z,3.10
2018-08-04T13:15:00.925Z,3.33
2018-08-04T13:17:29.648Z,2.90
2018-08-04T13:19:58.374Z,3.63
2018-08-04T13:22:27.128Z,3.60
2018-08-04T13:24:56.257Z,4.20
2018-08-04T13:27:25.189Z,5.03
2018-08-04T13:29:53.904Z,4.20
2018-08-04T13:32:22.605Z,5.03
2018-08-04T13:34:51.368Z,3.73
2018-08-04T13:37:20.134Z,3.80
2018-08-04T13:39:48.825Z,3.17
2018-08-04T13:42:17.530Z,4.67
2018-08-04T13:44:46.239Z,3.70
2018-08-04T13:47:14.945Z,4.27
2018-08-04T13:49:43.657Z,3.90
2018-08-04T13:52:12.385Z,4.03
2018-08-04T13:54:41.095Z,5.10
2018-08-04T13:57:09.969Z,3.90
2018-08-04T13:59:38.794Z,4.13
2018-08-04T14:02:07.612Z,4.30
2018-08-04T14:04:36.389Z,5.20
2018-08-04T14:07:05.141Z,4.30
2018-08-04T14:09:33.922Z,4.03
2018-08-04T14:12:02.689Z,3.67
2018-08-04T14:14:31.414Z,4.83
2018-08-04T14:17:00.123Z,4.20
2018-08-04T14:19:28.882Z,4.50
2018-08-04T14:21:57.592Z,4.30
2018-08-04T14:24:26.337Z,4.20
2018-08-04T14:26:55.072Z,5.50
2018-08-04T14:29:23.798Z,4.70
2018-08-04T14:31:52.638Z,4.00
2018-08-04T14:34:21.366Z,4.57
2018-08-04T14:36:50.099Z,4.43
2018-08-04T14:39:18.918Z,4.70
2018-08-04T14:41:47.747Z,4.50
2018-08-04T14:44:16.453Z,4.40
2018-08-04T14:46:45.160Z,5.23
2018-08-04T14:49:14.005Z,4.90
2018-08-04T14:51:42.722Z,4.57
2018-08-04T14:54:11.457Z,5.63
2018-08-04T14:56:40.150Z,5.57
2018-08-04T14:59:08.993Z,5.03
2018-08-04T15:01:37.781Z,5.90
2018-08-04T15:04:06.750Z,5.00
2018-08-04T15:06:35.486Z,4.13
2018-08-04T15:09:05.862Z,7.23
2018-08-04T15:11:34.705Z,5.97
2018-08-04T15:14:03.433Z,6.17
2018-08-04T15:16:32.210Z,5.47
2018-08-04T15:19:01.086Z,4.90
2018-08-04T15:21:29.819Z,5.53
2018-08-04T15:23:58.543Z,5.40
2018-08-04T15:26:27.273Z,5.10
2018-08-04T15:28:55.983Z,5.50
2018-08-04T15:31:25.207Z,4.90
2018-08-04T15:33:55.030Z,5.70
2018-08-04T15:36:25.180Z,6.50
2018-08-04T15:38:53.982Z,5.50
2018-08-04T15:41:22.694Z,6.40
2018-08-04T15:43:51.390Z,6.63
2018-08-04T15:46:21.195Z,5.70
2018-08-04T15:48:49.916Z,5.97
2018-08-04T15:51:18.817Z,6.27
2018-08-04T15:53:47.537Z,6.43
2018-08-04T15:56:16.245Z,6.50
2018-08-04T15:58:45.008Z,5.97
2018-08-04T16:01:13.742Z,5.43
2018-08-04T16:03:42.530Z,5.83
2018-08-04T16:06:11.357Z,6.13
2018-08-04T16:08:40.082Z,6.03
2018-08-04T16:11:08.824Z,6.80
2018-08-04T16:13:37.641Z,7.37
2018-08-04T16:16:06.416Z,6.83
2018-08-04T16:18:35.150Z,6.87
2018-08-04T16:21:03.868Z,7.20
2018-08-04T16:23:32.589Z,7.67
2018-08-04T16:26:01.321Z,7.80
2018-08-04T16:28:30.079Z,7.30
2018-08-04T16:30:58.829Z,6.40
2018-08-04T16:33:27.609Z,7.07
2018-08-04T16:35:56.374Z,7.60
2018-08-04T16:38:25.075Z,7.33
2018-08-04T16:40:53.813Z,7.30
2018-08-04T16:43:22.711Z,7.43
2018-08-04T16:45:51.422Z,6.33
2018-08-04T16:48:20.122Z,7.83
2018-08-04T16:50:48.866Z,7.17
2018-08-04T16:53:17.609Z,6.87
2018-08-04T16:55:46.340Z,7.37
2018-08-04T16:58:15.068Z,7.43
2018-08-04T17:00:43.793Z,8.43
2018-08-04T17:03:12.606Z,9.60
2018-08-04T17:05:41.380Z,8.60
2018-08-04T17:08:10.138Z,8.03
2018-08-04T17:10:38.869Z,8.90
2018-08-04T17:13:07.578Z,9.60
2018-08-04T17:15:36.306Z,9.00
2018-08-04T17:18:05.354Z,8.00
2018-08-04T17:20:34.076Z,8.30
2018-08-04T17:23:02.815Z,10.90
2018-08-04T17:25:31.575Z,8.90
2018-08-04T17:28:00.498Z,10.13
2018-08-04T17:30:29.289Z,9.33
2018-08-04T17:32:57.985Z,9.57
2018-08-04T17:35:26.943Z,9.57
2018-08-04T17:37:55.953Z,9.73
2018-08-04T17:40:24.950Z,10.10
2018-08-04T17:42:53.808Z,8.97
2018-08-04T17:45:22.545Z,9.13
2018-08-04T17:47:51.273Z,8.57
2018-08-04T17:50:20.133Z,9.40
2018-08-04T17:52:48.957Z,10.57
2018-08-04T17:55:17.723Z,10.93
2018-08-04T17:57:46.445Z,11.50
2018-08-04T18:00:15.173Z,11.33
2018-08-04T18:02:44.002Z,9.67
2018-08-04T18:05:12.762Z,8.97
2018-08-04T18:07:41.582Z,9.27
2018-08-04T18:10:10.289Z,10.13
2018-08-04T18:12:39.116Z,10.83
2018-08-04T18:15:08.233Z,11.03
2018-08-04T18:17:36.946Z,11.00
2018-08-04T18:20:05.724Z,10.93
2018-08-04T18:22:34.445Z,10.47
2018-08-04T18:25:03.188Z,12.07
2018-08-04T18:27:31.990Z,11.40
2018-08-04T18:30:00.764Z,11.00
2018-08-04T18:32:29.478Z,10.70
2018-08-04T18:34:58.193Z,12.23
2018-08-04T18:37:26.985Z,12.87
2018-08-04T18:39:55.752Z,11.60
2018-08-04T18:42:24.472Z,10.63
2018-08-04T18:44:53.258Z,11.37
2018-08-04T18:47:21.984Z,10.90
2018-08-04T18:49:50.757Z,11.50
2018-08-04T18:52:19.496Z,12.03
2018-08-04T18:54:48.275Z,10.30
2018-08-04T18:57:17.008Z,13.10
2018-08-04T18:59:45.816Z,11.40
2018-08-04T19:02:14.593Z,11.17
2018-08-04T19:04:44.781Z,10.77
2018-08-04T19:07:13.552Z,11.70
2018-08-04T19:09:42.353Z,12.07
2018-08-04T19:12:11.133Z,10.73
2018-08-04T19:14:39.891Z,11.03
2018-08-04T19:17:08.648Z,10.80
2018-08-04T19:19:37.470Z,13.40
2018-08-04T19:22:06.262Z,11.83
2018-08-04T19:24:35.144Z,12.73
2018-08-04T19:27:03.938Z,13.57
2018-08-04T19:29:32.757Z,12.57
2018-08-04T19:32:01.561Z,13.60
2018-08-04T19:34:30.445Z,12.53
2018-08-04T19:36:59.213Z,14.37
2018-08-04T19:39:27.950Z,12.93
2018-08-04T19:41:56.705Z,12.90
2018-08-04T19:44:25.519Z,12.60
2018-08-04T19:46:54.346Z,13.73
2018-08-04T19:49:23.103Z,14.50
2018-08-04T19:51:51.834Z,15.00
2018-08-04T19:54:20.573Z,13.30
2018-08-04T19:56:49.314Z,13.70
2018-08-04T19:59:18.066Z,14.57
2018-08-04T20:01:46.801Z,14.50
2018-08-04T20:04:15.543Z,14.27
2018-08-04T20:06:44.390Z,14.73
2018-08-04T20:09:13.125Z,14.23
2018-08-04T20:11:41.852Z,13.90
2018-08-04T20:14:10.573Z,14.07
2018-08-04T20:16:39.326Z,14.87
2018-08-04T20:19:08.077Z,13.07
2018-08-04T20:21:36.812Z,13.00
2018-08-04T20:24:05.603Z,14.53
2018-08-04T20:26:34.337Z,13.63
2018-08-04T20:29:03.064Z,13.83
2018-08-04T20:31:31.827Z,14.37
2018-08-04T20:34:00.686Z,13.80
2018-08-04T20:36:29.452Z,15.60
2018-08-04T20:38:58.166Z,15.10
2018-08-04T20:41:26.936Z,13.00
2018-08-04T20:43:55.677Z,12.83
2018-08-04T20:46:24.485Z,13.77
2018-08-04T20:48:53.476Z,13.80
2018-08-04T20:51:22.194Z,12.97
2018-08-04T20:53:50.914Z,14.20
2018-08-04T20:56:19.629Z,13.93
2018-08-04T20:58:48.323Z,14.60
2018-08-04T21:01:28.063Z,15.90
2018-08-04T21:03:56.831Z,13.73
2018-08-04T21:06:25.581Z,13.80
2018-08-04T21:08:54.484Z,14.70
2018-08-04T21:11:23.200Z,14.77
2018-08-04T21:13:51.955Z,14.17
2018-08-04T21:16:20.739Z,12.20
2018-08-04T21:18:49.474Z,13.97
2018-08-04T21:21:18.311Z,14.60
2018-08-04T21:23:47.113Z,14.40
2018-08-04T21:26:15.861Z,13.80
2018-08-04T21:28:44.575Z,12.77
2018-08-04T21:31:13.299Z,13.97
2018-08-04T21:33:42.022Z,13.60
2018-08-04T21:36:10.723Z,14.23
2018-08-04T21:38:39.488Z,13.30
2018-08-04T21:41:08.197Z,15.20
2018-08-04T21:43:36.977Z,14.97
2018-08-04T21:46:05.716Z,13.20
2018-08-04T21:48:34.555Z,15.63
2018-08-04T21:51:03.263Z,14.90
2018-08-04T21:53:32.006Z,13.93
2018-08-04T21:56:00.874Z,14.70
2018-08-04T21:58:29.574Z,16.33
2018-08-04T22:01:03.334Z,14.03
2018-08-04T22:03:32.061Z,14.57
2018-08-04T22:06:00.809Z,15.70
2018-08-04T22:08:40.686Z,17.97
2018-08-04T22:11:09.377Z,14.83
2018-08-04T22:13:38.070Z,14.97
2018-08-04T22:16:06.984Z,15.93
2018-08-04T22:18:35.686Z,15.03
2018-08-04T22:21:04.385Z,13.93
2018-08-04T22:23:33.101Z,14.47
2018-08-04T22:26:01.869Z,14.63
2018-08-04T22:28:30.642Z,17.40
2018-08-04T22:30:59.421Z,18.10
2018-08-04T22:33:28.156Z,15.83
2018-08-04T22:35:56.849Z,16.93
2018-08-04T22:38:25.558Z,15.07
2018-08-04T22:40:54.338Z,14.17
2018-08-04T22:43:23.058Z,15.70
2018-08-04T22:46:10.773Z,15.57
2018-08-04T22:48:39.591Z,14.40
2018-08-04T22:51:08.354Z,14.80
2018-08-04T22:53:37.265Z,14.63
2018-08-04T22:56:06.073Z,14.33
2018-08-04T22:58:34.800Z,13.83
2018-08-04T23:01:03.541Z,17.03
2018-08-04T23:03:32.308Z,14.30
2018-08-04T23:06:01.090Z,16.00
2018-08-04T23:08:29.792Z,15.87
2018-08-04T23:10:58.510Z,15.33
2018-08-04T23:13:27.375Z,15.23
2018-08-04T23:15:56.141Z,16.73
2018-08-04T23:18:24.926Z,17.50
2018-08-04T23:20:53.696Z,16.87
2018-08-04T23:23:22.417Z,15.77
2018-08-04T23:25:51.171Z,15.17
2018-08-04T23:28:19.953Z,15.03
2018-08-04T23:30:48.696Z,17.60
2018-08-04T23:33:17.418Z,16.13
2018-08-04T23:35:46.139Z,14.87
2018-08-04T23:38:15.066Z,14.70
2018-08-04T23:40:43.810Z,16.20
2018-08-04T23:43:12.650Z,15.80
2018-08-04T23:45:41.393Z,15.30
2018-08-04T23:48:10.131Z,14.77
2018-08-04T23:50:38.849Z,13.80
2018-08-04T23:53:07.592Z,14.60
2018-08-04T23:55:42.705Z,15.17
2018-08-04T23:58:11.502Z,13.80
